Time;durP1;ratioP1;P1;durP2;ratioP2;P2;SDS_P1;SDS_P2;PMS_P1;PMS_P2;Temp;Humidity;BMP_temperature;BMP_pressure;BME280_temperature;BME280_humidity;BME280_pressure;Samples;Min_cycle;Max_cycle;Signal;HPM_P1;HPM_P2
2023/09/11 00:00:59;;;;;;;3.90;3.03;;;18.30;55.10;;;;;;5016266;28;20026;-73
2023/09/11 00:03:25;;;;;;;3.75;3.17;;;18.30;55.80;;;;;;5015535;28;20033;-73
2023/09/11 00:05:51;;;;;;;5.05;3.25;;;18.20;55.30;;;;;;5016259;28;20036;-73
2023/09/11 00:08:16;;;;;;;3.83;3.22;;;18.20;55.50;;;;;;5016066;28;20022;-72
2023/09/11 00:10:42;;;;;;;5.20;3.28;;;18.10;55.60;;;;;;5016343;28;20380;-73
2023/09/11 00:13:08;;;;;;;3.95;3.17;;;18.10;55.70;;;;;;5015171;28;20116;-72
2023/09/11 00:15:34;;;;;;;3.53;2.88;;;18.00;55.80;;;;;;5019052;28;20376;-72
2023/09/11 00:18:00;;;;;;;4.32;3.38;;;18.10;56.00;;;;;;5035529;28;20440;-73
2023/09/11 00:20:26;;;;;;;3.70;2.90;;;18.00;56.00;;;;;;5035836;28;20061;-73
2023/09/11 00:22:51;;;;;;;3.63;3.08;;;18.00;56.10;;;;;;5035755;28;20060;-72
2023/09/11 00:25:17;;;;;;;3.67;3.00;;;18.00;56.10;;;;;;5035833;28;20114;-73
2023/09/11 00:27:43;;;;;;;4.28;3.10;;;17.90;56.10;;;;;;5034383;28;20026;-73
2023/09/11 00:30:09;;;;;;;4.63;3.10;;;18.00;56.10;;;;;;5024569;28;20028;-73
2023/09/11 00:32:35;;;;;;;4.82;3.35;;;17.90;56.00;;;;;;5040514;28;20034;-73
2023/09/11 00:35:00;;;;;;;4.28;3.00;;;17.90;56.00;;;;;;5035300;28;20055;-73
2023/09/11 00:37:26;;;;;;;3.65;3.03;;;17.80;56.00;;;;;;5033881;28;20053;-72
2023/09/11 00:39:52;;;;;;;3.72;2.90;;;17.80;56.10;;;;;;5017451;28;20095;-73
2023/09/11 00:42:17;;;;;;;4.20;3.15;;;17.80;56.20;;;;;;5015324;28;20037;-73
2023/09/11 00:44:43;;;;;;;4.95;3.20;;;17.80;56.30;;;;;;5015551;28;20029;-73
2023/09/11 00:47:09;;;;;;;4.18;3.08;;;17.70;56.30;;;;;;5032269;28;20151;-72
2023/09/11 00:49:35;;;;;;;3.65;3.03;;;17.70;56.40;;;;;;5034056;28;20083;-73
2023/09/11 00:52:01;;;;;;;5.05;3.28;;;17.70;56.50;;;;;;5035436;28;20422;-73
2023/09/11 00:54:27;;;;;;;3.90;3.30;;;17.70;56.50;;;;;;5035050;28;20025;-72
2023/09/11 00:56:53;;;;;;;4.95;3.15;;;17.80;56.60;;;;;;5030679;28;20037;-73
2023/09/11 00:59:19;;;;;;;3.85;3.22;;;17.70;56.60;;;;;;5015004;28;20100;-73
2023/09/11 01:01:46;;;;;;;3.88;3.10;;;17.70;56.60;;;;;;5015203;28;20117;-72
2023/09/11 01:04:12;;;;;;;4.43;3.42;;;17.70;56.60;;;;;;5015768;28;20088;-72
2023/09/11 01:06:38;;;;;;;4.20;3.10;;;17.70;56.60;;;;;;5015478;28;20120;-73
2023/09/11 01:09:04;;;;;;;3.90;3.00;;;17.70;56.60;;;;;;5023782;28;20121;-73
2023/09/11 01:11:30;;;;;;;4.25;3.13;;;17.70;56.60;;;;;;5034558;28;20026;-72
2023/09/11 01:13:57;;;;;;;3.50;3.10;;;17.70;56.60;;;;;;5034611;28;20025;-73
2023/09/11 01:16:32;;;;;;;5.07;3.00;;;17.60;56.60;;;;;;5019863;28;20053;-73
2023/09/11 01:19:46;;;;;;;4.30;3.10;;;17.60;56.60;;;;;;5034114;28;20041;-74
2023/09/11 01:22:49;;;;;;;3.53;2.90;;;17.60;56.60;;;;;;5015076;28;20049;-73
2023/09/11 01:25:42;;;;;;;3.22;2.80;;;17.60;56.90;;;;;;5031982;28;20042;-72
2023/09/11 01:28:13;;;;;;;5.45;3.00;;;17.50;57.20;;;;;;5016348;28;20084;-73
2023/09/11 01:30:40;;;;;;;3.53;2.80;;;17.40;57.00;;;;;;5022625;28;20040;-73
2023/09/11 01:33:06;;;;;;;2.88;2.55;;;17.30;57.20;;;;;;5054215;28;20021;-73
2023/09/11 01:35:31;;;;;;;3.67;2.75;;;17.30;57.50;;;;;;5047915;28;20087;-72
2023/09/11 01:37:58;;;;;;;3.67;2.80;;;17.30;57.50;;;;;;5031184;28;20032;-72
2023/09/11 01:40:27;;;;;;;3.72;3.00;;;17.20;57.60;;;;;;5014112;28;20480;-72
2023/09/11 01:42:56;;;;;;;3.67;2.83;;;17.20;57.80;;;;;;5022674;28;20032;-72
2023/09/11 01:45:23;;;;;;;3.42;2.80;;;17.10;57.90;;;;;;5025803;28;20026;-73
2023/09/11 01:47:52;;;;;;;4.03;3.00;;;17.00;58.00;;;;;;5014311;28;20033;-72
2023/09/11 01:50:21;;;;;;;3.60;2.80;;;17.00;58.10;;;;;;5013060;28;20029;-74
2023/09/11 01:52:51;;;;;;;2.95;2.65;;;17.00;58.20;;;;;;5014552;28;20033;-72
2023/09/11 01:55:17;;;;;;;3.45;2.78;;;17.10;58.30;;;;;;5014021;28;20121;-72
2023/09/11 01:57:43;;;;;;;4.78;2.90;;;17.10;58.20;;;;;;5014355;28;20495;-72
2023/09/11 02:00:09;;;;;;;3.92;2.90;;;17.10;58.00;;;;;;5014286;28;20030;-73
2023/09/11 02:02:35;;;;;;;3.65;2.80;;;17.20;58.00;;;;;;5014265;28;20025;-72
2023/09/11 02:05:01;;;;;;;3.30;2.80;;;17.20;57.90;;;;;;5014694;28;20460;-72
2023/09/11 02:07:27;;;;;;;5.75;3.35;;;17.20;57.80;;;;;;5014087;28;20045;-73
2023/09/11 02:09:53;;;;;;;6.20;3.33;;;17.20;57.80;;;;;;5014122;28;20493;-73
2023/09/11 02:12:18;;;;;;;3.85;3.13;;;17.20;57.80;;;;;;5013567;28;20058;-74
2023/09/11 02:14:44;;;;;;;6.97;3.80;;;17.20;57.80;;;;;;5018650;28;20021;-73
2023/09/11 02:17:09;;;;;;;4.75;2.95;;;17.20;57.90;;;;;;5033462;28;20487;-73
2023/09/11 02:19:35;;;;;;;4.88;2.63;;;17.20;57.90;;;;;;5033708;28;20026;-73
2023/09/11 02:22:01;;;;;;;3.63;2.70;;;17.20;58.00;;;;;;5033655;28;20044;-73
2023/09/11 02:24:26;;;;;;;3.60;2.63;;;17.10;58.10;;;;;;5033761;28;20513;-73
2023/09/11 02:26:54;;;;;;;2.90;2.60;;;17.10;58.10;;;;;;5032528;28;20048;-73
2023/09/11 02:29:20;;;;;;;3.35;3.00;;;17.10;58.20;;;;;;5036239;28;20106;-73
2023/09/11 02:31:46;;;;;;;5.38;3.28;;;17.10;58.20;;;;;;5049046;28;20450;-73
2023/09/11 02:34:12;;;;;;;4.97;2.97;;;17.10;58.10;;;;;;5057299;28;20083;-73
2023/09/11 02:36:37;;;;;;;4.03;2.97;;;17.10;58.20;;;;;;5024891;28;20475;-73
2023/09/11 02:39:03;;;;;;;3.88;3.00;;;17.10;58.20;;;;;;5017583;28;20388;-73
2023/09/11 02:41:29;;;;;;;6.65;3.30;;;17.20;58.20;;;;;;5017519;28;20041;-73
2023/09/11 02:43:55;;;;;;;4.72;3.33;;;17.20;58.20;;;;;;5017777;28;20037;-74
2023/09/11 02:46:21;;;;;;;3.67;3.10;;;17.20;58.20;;;;;;5035887;28;20032;-73
2023/09/11 02:48:47;;;;;;;4.47;3.20;;;17.20;58.20;;;;;;5037442;28;20079;-73
2023/09/11 02:51:14;;;;;;;4.63;3.50;;;17.20;58.20;;;;;;5037534;28;20048;-73
2023/09/11 02:53:39;;;;;;;4.68;3.53;;;17.20;58.30;;;;;;5036390;28;20022;-73
2023/09/11 02:56:05;;;;;;;4.65;3.60;;;17.20;58.30;;;;;;5037246;28;20032;-74
2023/09/11 02:58:31;;;;;;;6.70;5.07;;;17.20;58.30;;;;;;5037556;28;20029;-73
2023/09/11 03:01:04;;;;;;;6.93;3.90;;;17.10;58.20;;;;;;5019942;28;20026;-73
2023/09/11 03:03:31;;;;;;;6.18;4.50;;;17.20;58.40;;;;;;5017386;28;20161;-73
2023/09/11 03:05:58;;;;;;;6.28;4.30;;;17.20;58.40;;;;;;5017450;28;20036;-73
2023/09/11 03:08:24;;;;;;;5.88;4.65;;;17.10;58.50;;;;;;5017072;28;20049;-73
2023/09/11 03:10:50;;;;;;;6.05;4.72;;;17.10;58.50;;;;;;5018700;28;20078;-73
2023/09/11 03:13:16;;;;;;;5.63;4.20;;;17.10;58.60;;;;;;5017521;28;20053;-73
2023/09/11 03:15:45;;;;;;;4.82;3.80;;;17.10;58.70;;;;;;5034042;28;20468;-73
2023/09/11 03:18:11;;;;;;;6.05;3.72;;;17.10;58.70;;;;;;5035772;28;20029;-74
2023/09/11 03:20:37;;;;;;;4.95;3.60;;;17.10;58.70;;;;;;5036682;28;20026;-73
2023/09/11 03:23:02;;;;;;;4.60;3.38;;;17.10;58.80;;;;;;5036567;28;20026;-72
2023/09/11 03:25:35;;;;;;;4.10;2.90;;;17.10;58.90;;;;;;5027030;28;20364;-72
2023/09/11 03:28:01;;;;;;;7.35;5.30;;;17.10;58.90;;;;;;5031419;28;20042;-74
2023/09/11 03:30:27;;;;;;;5.30;3.95;;;17.10;59.00;;;;;;5016959;28;20022;-73
2023/09/11 03:32:52;;;;;;;5.78;3.78;;;17.10;59.00;;;;;;5051034;28;20508;-73
2023/09/11 03:35:18;;;;;;;5.60;3.50;;;17.10;59.00;;;;;;5047819;28;20029;-73
2023/09/11 03:37:43;;;;;;;3.83;3.35;;;17.10;59.00;;;;;;5036350;28;20040;-75
2023/09/11 03:40:14;;;;;;;4.55;3.78;;;17.10;59.00;;;;;;5034622;28;20053;-77
2023/09/11 03:42:40;;;;;;;5.65;3.35;;;17.10;59.00;;;;;;5028197;28;20482;-77
2023/09/11 03:45:07;;;;;;;3.90;3.15;;;17.10;59.10;;;;;;5024758;28;20037;-73
2023/09/11 03:47:33;;;;;;;6.47;3.25;;;17.10;59.10;;;;;;5036251;28;20029;-76
2023/09/11 03:50:00;;;;;;;5.60;3.50;;;17.10;59.10;;;;;;5035340;28;20058;-79
2023/09/11 03:52:26;;;;;;;3.83;3.30;;;17.10;59.10;;;;;;5035029;28;20356;-76
2023/09/11 03:54:51;;;;;;;5.82;3.30;;;17.10;59.10;;;;;;5035485;28;20040;-77
2023/09/11 03:57:17;;;;;;;5.03;3.33;;;17.10;59.20;;;;;;5035720;28;20030;-76
2023/09/11 03:59:43;;;;;;;4.13;3.25;;;17.10;59.20;;;;;;5035022;28;20030;-76
2023/09/11 04:02:08;;;;;;;3.88;2.90;;;17.10;59.20;;;;;;5027671;28;20037;-77
2023/09/11 04:04:34;;;;;;;4.32;3.33;;;17.10;59.80;;;;;;5034341;28;20064;-76
2023/09/11 04:06:59;;;;;;;4.15;3.20;;;17.10;59.30;;;;;;5029938;28;20037;-77
2023/09/11 04:09:25;;;;;;;4.10;3.15;;;17.10;59.30;;;;;;5020170;28;20030;-84
2023/09/11 04:11:51;;;;;;;4.07;3.30;;;17.10;59.40;;;;;;5020280;28;20021;-77
2023/09/11 04:14:16;;;;;;;5.00;3.30;;;17.20;59.50;;;;;;5019862;28;20471;-74
2023/09/11 04:16:42;;;;;;;7.07;3.60;;;17.20;59.50;;;;;;5014901;28;20033;-76
2023/09/11 04:19:08;;;;;;;5.20;3.80;;;17.20;59.50;;;;;;5026167;28;20498;-73
2023/09/11 04:21:33;;;;;;;26.15;18.13;;;17.30;59.60;;;;;;5015784;28;20480;-77
2023/09/11 04:23:59;;;;;;;29.38;21.58;;;17.30;59.50;;;;;;5021321;28;20025;-75
2023/09/11 04:26:25;;;;;;;16.85;11.95;;;17.30;59.40;;;;;;5024830;28;20030;-82
2023/09/11 04:28:51;;;;;;;12.25;8.20;;;17.40;59.40;;;;;;5034464;28;20210;-76
2023/09/11 04:31:16;;;;;;;9.75;6.20;;;17.40;59.40;;;;;;5032647;28;20029;-75
2023/09/11 04:33:42;;;;;;;7.80;5.70;;;17.40;59.50;;;;;;5032854;28;20104;-76
2023/09/11 04:36:07;;;;;;;6.53;4.78;;;17.40;59.40;;;;;;5027634;28;20046;-85
2023/09/11 04:38:33;;;;;;;5.63;4.43;;;17.40;59.40;;;;;;5038273;28;20046;-73
2023/09/11 04:40:59;;;;;;;5.55;4.50;;;17.40;59.40;;;;;;5027848;28;20091;-71
2023/09/11 04:43:25;;;;;;;4.95;3.80;;;17.40;59.40;;;;;;5013726;28;20026;-74
2023/09/11 04:45:51;;;;;;;5.13;3.90;;;17.40;59.50;;;;;;5027082;28;20034;-73
2023/09/11 04:48:17;;;;;;;5.55;3.88;;;17.50;59.50;;;;;;5015254;28;20034;-73
2023/09/11 04:50:43;;;;;;;4.28;3.65;;;17.50;59.60;;;;;;5024558;28;20026;-83
2023/09/11 04:53:08;;;;;;;6.05;3.90;;;17.50;59.60;;;;;;5029343;28;20018;-81
2023/09/11 04:55:34;;;;;;;5.18;3.90;;;17.50;59.70;;;;;;5023063;28;20038;-79
2023/09/11 04:58:00;;;;;;;6.95;3.50;;;17.50;59.70;;;;;;5019763;28;20060;-79
2023/09/11 05:00:26;;;;;;;6.57;4.18;;;17.60;59.70;;;;;;5025451;28;20034;-79
2023/09/11 05:02:52;;;;;;;10.65;5.97;;;17.50;60.40;;;;;;5024676;28;20029;-80
2023/09/11 05:05:18;;;;;;;6.28;4.93;;;17.40;60.40;;;;;;5014007;28;20022;-80
2023/09/11 05:07:44;;;;;;;6.22;4.70;;;17.40;60.80;;;;;;5015067;28;20113;-80
2023/09/11 05:10:09;;;;;;;5.60;4.20;;;17.40;61.00;;;;;;5015538;28;20376;-80
2023/09/11 05:12:35;;;;;;;6.88;4.40;;;17.40;61.10;;;;;;5014999;28;20543;-80
2023/09/11 05:15:02;;;;;;;5.32;4.07;;;17.50;61.30;;;;;;5014879;28;20457;-80
2023/09/11 05:17:28;;;;;;;7.45;4.40;;;17.50;61.30;;;;;;5014435;28;20379;-80
2023/09/11 05:19:53;;;;;;;7.88;4.32;;;17.60;61.50;;;;;;5014707;28;20105;-80
2023/09/11 05:22:19;;;;;;;5.85;3.85;;;17.60;61.70;;;;;;5014985;28;20083;-80
2023/09/11 05:24:45;;;;;;;5.88;4.50;;;17.60;61.80;;;;;;5015063;28;20029;-80
2023/09/11 05:27:10;;;;;;;5.30;4.35;;;17.60;61.80;;;;;;5014550;28;20430;-81
2023/09/11 05:29:36;;;;;;;5.30;4.20;;;17.70;61.90;;;;;;5014507;28;20036;-81
2023/09/11 05:32:02;;;;;;;5.68;4.10;;;17.70;62.00;;;;;;5013472;28;20026;-79
2023/09/11 05:34:28;;;;;;;4.95;3.95;;;17.70;62.00;;;;;;5013506;28;20381;-79
2023/09/11 05:36:54;;;;;;;5.20;3.80;;;17.80;61.90;;;;;;5015223;28;20065;-80
2023/09/11 05:39:21;;;;;;;4.82;3.78;;;17.80;61.80;;;;;;5014901;28;20046;-80
2023/09/11 05:41:46;;;;;;;5.00;3.88;;;17.90;61.90;;;;;;5014632;28;20483;-82
2023/09/11 05:44:12;;;;;;;3.97;3.35;;;18.00;61.80;;;;;;5014766;28;20092;-79
2023/09/11 05:46:38;;;;;;;5.63;3.28;;;18.00;61.90;;;;;;5014578;28;20033;-79
2023/09/11 05:49:04;;;;;;;6.53;3.58;;;18.10;61.80;;;;;;5012830;28;20184;-80
2023/09/11 05:51:30;;;;;;;8.90;3.65;;;18.20;61.70;;;;;;5014435;28;20030;-79
2023/09/11 05:53:55;;;;;;;3.60;3.15;;;18.40;61.50;;;;;;5014211;28;20084;-81
2023/09/11 05:56:21;;;;;;;3.90;3.10;;;18.40;61.40;;;;;;5014104;28;20032;-79
2023/09/11 05:58:46;;;;;;;4.88;3.33;;;18.40;61.30;;;;;;5014498;28;20088;-80
2023/09/11 06:01:13;;;;;;;4.55;3.33;;;18.40;61.30;;;;;;5014221;28;20105;-80
2023/09/11 06:03:39;;;;;;;4.80;3.60;;;18.40;61.30;;;;;;5017694;28;20049;-78
2023/09/11 06:06:05;;;;;;;4.40;3.55;;;18.40;61.50;;;;;;5033892;28;20092;-79
2023/09/11 06:08:32;;;;;;;4.82;3.50;;;18.40;61.50;;;;;;5034006;28;20037;-79
2023/09/11 06:10:59;;;;;;;5.97;3.60;;;18.40;61.50;;;;;;5033684;28;20450;-79
2023/09/11 06:13:26;;;;;;;5.38;3.58;;;18.50;61.50;;;;;;5032634;28;20036;-79
2023/09/11 06:15:52;;;;;;;5.40;3.72;;;18.60;61.40;;;;;;5033762;28;20045;-77
2023/09/11 06:18:17;;;;;;;4.95;3.55;;;18.70;61.40;;;;;;5033644;28;20034;-79
2023/09/11 06:20:43;;;;;;;5.20;3.60;;;18.80;61.40;;;;;;5033743;28;20041;-80
2023/09/11 06:23:10;;;;;;;5.30;3.63;;;18.90;61.30;;;;;;5032724;28;20029;-80
2023/09/11 06:25:36;;;;;;;4.25;3.10;;;18.90;61.20;;;;;;5031746;28;20034;-79
2023/09/11 06:28:03;;;;;;;5.85;3.60;;;19.00;61.30;;;;;;5032963;28;20116;-78
2023/09/11 06:30:31;;;;;;;5.25;4.05;;;19.10;61.20;;;;;;5032157;28;20037;-78
2023/09/11 06:32:57;;;;;;;4.85;3.60;;;19.20;61.10;;;;;;5033673;28;20028;-79
2023/09/11 06:35:22;;;;;;;4.40;3.60;;;19.30;61.00;;;;;;5033380;28;20105;-78
2023/09/11 06:37:48;;;;;;;5.50;3.90;;;19.30;60.90;;;;;;5032854;28;20029;-79
2023/09/11 06:40:15;;;;;;;4.93;3.90;;;19.30;60.90;;;;;;5033433;28;20030;-79
2023/09/11 06:42:40;;;;;;;6.38;3.85;;;19.40;60.90;;;;;;5033554;28;20032;-79
2023/09/11 06:45:07;;;;;;;4.53;3.65;;;19.40;60.80;;;;;;5032322;28;20458;-78
2023/09/11 06:47:33;;;;;;;4.47;3.40;;;19.50;60.80;;;;;;5033413;28;20042;-81
2023/09/11 06:49:59;;;;;;;4.53;3.30;;;19.60;60.80;;;;;;5032618;28;20430;-80
2023/09/11 06:52:25;;;;;;;4.32;3.20;;;19.70;60.70;;;;;;5033464;28;20029;-79
2023/09/11 06:54:50;;;;;;;5.00;3.20;;;19.70;60.50;;;;;;5033012;28;20079;-80
2023/09/11 06:57:16;;;;;;;4.40;3.40;;;19.90;60.60;;;;;;5033568;28;20112;-80
2023/09/11 06:59:42;;;;;;;3.90;3.17;;;19.90;60.40;;;;;;5033274;28;20030;-80
2023/09/11 07:02:08;;;;;;;4.30;3.25;;;20.00;60.30;;;;;;5032176;28;20053;-80
2023/09/11 07:04:33;;;;;;;3.75;2.97;;;20.20;60.20;;;;;;5033185;28;20025;-80
2023/09/11 07:06:59;;;;;;;4.00;3.08;;;20.30;60.10;;;;;;5032734;28;20026;-78
2023/09/11 07:09:25;;;;;;;4.03;3.08;;;20.40;59.90;;;;;;5030358;28;20112;-77
2023/09/11 07:11:51;;;;;;;4.28;3.20;;;20.50;59.80;;;;;;5033071;28;20116;-78
2023/09/11 07:14:20;;;;;;;4.13;3.28;;;20.70;60.10;;;;;;5033525;28;20022;-78
2023/09/11 07:16:46;;;;;;;3.72;2.90;;;20.70;59.40;;;;;;5037061;28;20030;-79
2023/09/11 07:19:12;;;;;;;3.83;2.85;;;20.90;59.30;;;;;;5036357;28;20025;-79
2023/09/11 07:21:38;;;;;;;4.15;2.90;;;21.00;59.20;;;;;;5037011;28;20056;-79
2023/09/11 07:24:04;;;;;;;3.80;3.20;;;21.10;59.00;;;;;;5036865;28;20052;-79
2023/09/11 07:26:29;;;;;;;4.30;2.90;;;21.30;58.90;;;;;;5036986;28;20028;-79
2023/09/11 07:29:03;;;;;;;3.75;2.92;;;21.40;58.70;;;;;;5035336;28;20041;-79
2023/09/11 07:31:30;;;;;;;4.30;3.35;;;21.50;58.60;;;;;;5035402;28;20029;-79
2023/09/11 07:33:55;;;;;;;3.20;2.90;;;21.50;58.40;;;;;;5036838;28;20463;-79
2023/09/11 07:36:21;;;;;;;3.30;2.88;;;21.50;58.30;;;;;;5036461;28;20057;-79
2023/09/11 07:38:47;;;;;;;3.50;2.85;;;21.60;58.30;;;;;;5036294;28;20021;-79
2023/09/11 07:41:17;;;;;;;3.42;3.00;;;21.60;58.10;;;;;;5018727;28;20100;-79
2023/09/11 07:43:48;;;;;;;5.15;3.17;;;21.70;57.90;;;;;;5016478;28;20065;-79
2023/09/11 07:46:14;;;;;;;3.25;2.85;;;21.60;57.80;;;;;;5016740;28;20030;-79
2023/09/11 07:48:40;;;;;;;3.33;2.80;;;21.70;57.70;;;;;;5016536;28;20424;-78
2023/09/11 07:51:05;;;;;;;3.78;2.80;;;21.60;57.40;;;;;;5016305;28;20101;-78
2023/09/11 07:53:31;;;;;;;3.00;2.70;;;21.60;57.60;;;;;;5015284;28;20029;-79
2023/09/11 07:55:57;;;;;;;2.67;2.38;;;21.70;57.40;;;;;;5016067;28;20097;-78
2023/09/11 07:58:23;;;;;;;2.88;2.58;;;21.70;57.10;;;;;;5015927;28;20029;-79
2023/09/11 08:00:49;;;;;;;3.17;2.75;;;21.60;56.80;;;;;;5016392;28;20032;-79
2023/09/11 08:03:14;;;;;;;3.03;2.53;;;21.50;56.80;;;;;;5016465;28;20443;-79
2023/09/11 08:05:40;;;;;;;3.60;2.40;;;21.50;56.90;;;;;;5016399;28;20426;-80
2023/09/11 08:08:06;;;;;;;2.85;2.50;;;21.50;57.00;;;;;;5014797;28;20041;-78
2023/09/11 08:10:31;;;;;;;2.65;2.40;;;21.50;57.00;;;;;;5029646;28;20025;-77
2023/09/11 08:12:57;;;;;;;2.30;2.10;;;21.60;56.90;;;;;;5034990;28;20108;-79
2023/09/11 08:15:24;;;;;;;3.38;2.80;;;21.60;56.80;;;;;;5036034;28;20143;-79
2023/09/11 08:17:49;;;;;;;2.80;2.50;;;21.70;56.70;;;;;;5034554;28;20029;-79
2023/09/11 08:20:15;;;;;;;2.60;2.30;;;21.80;56.70;;;;;;5035728;28;20102;-81
2023/09/11 08:22:41;;;;;;;2.38;2.17;;;21.80;56.60;;;;;;5034466;28;20032;-79
2023/09/11 08:25:10;;;;;;;3.47;2.50;;;21.90;56.40;;;;;;5033965;28;20040;-78
2023/09/11 08:27:36;;;;;;;2.63;2.40;;;21.90;56.20;;;;;;5033273;28;20029;-77
2023/09/11 08:30:02;;;;;;;2.70;2.35;;;21.90;55.90;;;;;;5035287;28;20471;-79
2023/09/11 08:32:28;;;;;;;2.72;2.53;;;22.00;55.70;;;;;;5035581;28;20068;-79
2023/09/11 08:34:54;;;;;;;2.72;2.33;;;22.00;55.60;;;;;;5034257;28;20131;-79
2023/09/11 08:37:19;;;;;;;2.50;2.30;;;22.00;55.60;;;;;;5035219;28;20431;-79
2023/09/11 08:39:45;;;;;;;2.42;2.20;;;22.00;55.50;;;;;;5034875;28;20076;-78
2023/09/11 08:42:11;;;;;;;2.95;2.25;;;22.00;55.30;;;;;;5034137;28;20056;-79
2023/09/11 08:44:37;;;;;;;2.63;2.40;;;22.10;55.30;;;;;;5034606;28;20060;-79
2023/09/11 08:47:05;;;;;;;2.65;2.30;;;22.20;55.10;;;;;;5033731;28;20029;-79
2023/09/11 08:49:33;;;;;;;2.97;2.40;;;22.20;55.00;;;;;;5035557;28;20104;-79
2023/09/11 08:52:02;;;;;;;2.58;2.38;;;22.20;54.80;;;;;;5034708;28;20021;-78
2023/09/11 08:54:34;;;;;;;2.60;2.30;;;22.10;54.90;;;;;;5034587;28;20048;-78
2023/09/11 08:57:01;;;;;;;2.45;2.17;;;22.00;54.70;;;;;;5033404;28;20048;-79
2023/09/11 08:59:29;;;;;;;2.53;2.33;;;22.00;54.60;;;;;;5034706;28;20017;-79
2023/09/11 09:01:56;;;;;;;2.53;2.08;;;22.00;54.60;;;;;;5033680;28;20033;-79
2023/09/11 09:04:24;;;;;;;2.28;1.85;;;21.90;54.60;;;;;;5034960;28;20464;-79
2023/09/11 09:06:51;;;;;;;3.65;2.13;;;21.80;54.50;;;;;;5034786;28;20022;-77
2023/09/11 09:09:18;;;;;;;2.20;2.00;;;21.80;54.70;;;;;;5034523;28;20375;-78
2023/09/11 09:11:48;;;;;;;2.30;2.10;;;21.80;54.70;;;;;;5034805;28;20183;-78
2023/09/11 09:14:18;;;;;;;2.05;1.90;;;21.90;54.70;;;;;;5017634;28;20044;-78
2023/09/11 09:16:45;;;;;;;2.20;2.00;;;21.90;54.40;;;;;;5032924;28;20029;-79
2023/09/11 09:19:10;;;;;;;3.45;2.20;;;21.80;54.30;;;;;;5033155;28;20033;-78
2023/09/11 09:21:36;;;;;;;2.50;2.30;;;21.80;54.40;;;;;;5034171;28;20033;-77
2023/09/11 09:24:11;;;;;;;2.28;2.08;;;21.80;54.40;;;;;;5034487;28;20032;-78
2023/09/11 09:27:01;;;;;;;2.20;2.00;;;21.90;54.40;;;;;;5034280;28;20036;-79
2023/09/11 09:29:32;;;;;;;2.55;2.35;;;21.90;54.20;;;;;;5032661;28;20041;-78
2023/09/11 09:32:04;;;;;;;2.33;2.13;;;22.00;54.10;;;;;;5033752;28;20360;-78
2023/09/11 09:34:32;;;;;;;2.53;2.20;;;22.00;54.10;;;;;;5033937;28;20030;-77
2023/09/11 09:36:58;;;;;;;2.40;2.20;;;22.10;54.00;;;;;;5033707;28;20075;-79
2023/09/11 09:39:28;;;;;;;2.33;2.13;;;22.10;53.90;;;;;;5033497;28;20466;-78
2023/09/11 09:41:58;;;;;;;2.50;2.22;;;22.20;53.90;;;;;;5033199;28;20030;-79
2023/09/11 09:44:34;;;;;;;4.15;2.20;;;22.20;54.10;;;;;;5014652;28;20041;-79
2023/09/11 09:47:15;;;;;;;2.30;2.10;;;22.20;53.70;;;;;;5014329;28;20492;-78
2023/09/11 09:49:52;;;;;;;2.30;2.10;;;22.20;53.60;;;;;;5029660;28;20036;-78
2023/09/11 09:52:29;;;;;;;2.28;2.10;;;22.20;53.50;;;;;;5034513;28;20467;-78
2023/09/11 09:54:55;;;;;;;2.30;2.10;;;22.20;53.40;;;;;;5032682;28;20124;-78
2023/09/11 09:57:24;;;;;;;2.40;2.20;;;22.10;53.50;;;;;;5033911;28;20037;-79
2023/09/11 09:59:52;;;;;;;2.45;2.25;;;22.20;53.40;;;;;;5033984;28;20032;-79
2023/09/11 10:02:27;;;;;;;2.30;2.10;;;22.20;53.30;;;;;;5032486;28;20529;-79
2023/09/11 10:04:53;;;;;;;;;;;22.20;53.40;;;;;;5034538;28;20025;-79
2023/09/11 10:07:38;;;;;;;2.40;2.20;;;22.20;53.20;;;;;;5033516;28;20019;-77
2023/09/11 10:10:20;;;;;;;3.40;2.08;;;22.20;53.20;;;;;;5034025;28;20030;-78
2023/09/11 10:12:45;;;;;;;2.10;1.90;;;22.30;53.30;;;;;;5032556;28;20516;-79
2023/09/11 10:15:12;;;;;;;2.22;2.00;;;22.30;53.20;;;;;;5034562;28;20025;-79
2023/09/11 10:17:38;;;;;;;2.72;2.42;;;22.40;53.20;;;;;;5033378;28;20037;-78
2023/09/11 10:20:05;;;;;;;3.67;2.30;;;22.30;53.00;;;;;;5033776;28;20033;-78
2023/09/11 10:22:31;;;;;;;2.10;1.95;;;22.40;53.20;;;;;;5032316;28;20052;-78
2023/09/11 10:24:57;;;;;;;2.42;2.15;;;22.30;53.20;;;;;;5033746;28;20061;-78
2023/09/11 10:27:22;;;;;;;2.30;2.10;;;22.40;53.10;;;;;;5033048;28;20040;-79
2023/09/11 10:30:06;;;;;;;3.53;2.50;;;22.40;53.10;;;;;;5033696;28;20025;-79
2023/09/11 10:33:08;;;;;;;2.42;2.22;;;22.40;53.00;;;;;;5033906;28;20032;-78
2023/09/11 10:35:38;;;;;;;2.50;2.28;;;22.50;53.10;;;;;;5030641;28;20033;-77
2023/09/11 10:38:07;;;;;;;2.17;2.00;;;22.50;53.00;;;;;;5033068;28;20037;-78
2023/09/11 10:40:34;;;;;;;2.42;2.22;;;22.50;53.00;;;;;;5032083;28;20026;-77
2023/09/11 10:43:00;;;;;;;2.65;2.10;;;22.60;53.00;;;;;;5032787;28;20053;-79
2023/09/11 10:45:26;;;;;;;2.00;1.80;;;22.70;53.00;;;;;;5033394;28;20490;-79
2023/09/11 10:47:52;;;;;;;2.30;2.10;;;22.70;52.70;;;;;;5033230;28;20040;-79
2023/09/11 10:50:17;;;;;;;4.35;2.50;;;22.70;52.70;;;;;;5028156;28;20029;-80
2023/09/11 10:52:45;;;;;;;6.57;4.32;;;22.70;52.70;;;;;;5018054;28;20028;-78
2023/09/11 10:55:11;;;;;;;4.82;3.08;;;22.80;52.70;;;;;;5027224;28;20156;-77
2023/09/11 10:57:37;;;;;;;3.05;2.63;;;22.80;52.70;;;;;;5027060;28;20104;-76
2023/09/11 11:00:05;;;;;;;3.67;2.58;;;22.80;52.70;;;;;;5027075;28;20037;-75
2023/09/11 11:02:31;;;;;;;3.33;2.47;;;22.80;52.70;;;;;;5016233;28;20084;-76
2023/09/11 11:04:57;;;;;;;3.97;2.35;;;22.80;52.70;;;;;;5017383;28;20030;-75
2023/09/11 11:07:23;;;;;;;2.78;2.30;;;22.90;52.70;;;;;;5042354;28;20482;-76
2023/09/11 11:09:51;;;;;;;2.97;2.40;;;22.90;52.60;;;;;;5039838;28;20061;-81
2023/09/11 11:12:32;;;;;;;5.13;4.32;;;22.90;52.50;;;;;;5033502;28;20029;-80
2023/09/11 11:15:19;;;;;;;2.80;2.53;;;23.10;52.30;;;;;;5032613;28;20053;-78
2023/09/11 11:17:45;;;;;;;2.83;2.53;;;23.10;52.00;;;;;;5017167;28;20037;-79
2023/09/11 11:20:11;;;;;;;2.55;2.35;;;23.10;52.20;;;;;;5016076;28;20096;-78
2023/09/11 11:22:41;;;;;;;3.13;2.33;;;23.10;52.10;;;;;;5026786;28;20045;-83
2023/09/11 11:25:12;;;;;;;2.40;2.20;;;23.10;52.10;;;;;;5040823;28;20029;-79
2023/09/11 11:27:39;;;;;;;9.00;7.57;;;23.10;52.00;;;;;;5038278;28;20041;-80
2023/09/11 11:30:05;;;;;;;2.90;2.20;;;23.10;52.10;;;;;;5038181;28;20468;-79
2023/09/11 11:32:34;;;;;;;6.03;2.50;;;23.10;52.00;;;;;;5017837;28;20026;-79
2023/09/11 11:35:04;;;;;;;2.60;2.40;;;23.10;51.90;;;;;;5026453;28;20156;-76
2023/09/11 11:37:35;;;;;;;2.10;1.90;;;23.10;51.90;;;;;;5018585;28;20129;-78
2023/09/11 11:40:01;;;;;;;3.05;2.05;;;23.10;52.00;;;;;;5017331;28;20065;-77
2023/09/11 11:42:27;;;;;;;2.08;1.90;;;23.10;52.00;;;;;;5023545;28;20036;-79
2023/09/11 11:44:54;;;;;;;2.30;2.05;;;23.20;52.00;;;;;;5021456;28;20101;-80
2023/09/11 11:47:20;;;;;;;3.17;2.03;;;23.20;51.70;;;;;;5014527;28;20061;-77
2023/09/11 11:49:49;;;;;;;2.25;2.03;;;23.20;51.70;;;;;;5015292;28;20026;-78
2023/09/11 11:52:15;;;;;;;2.45;2.05;;;23.20;51.70;;;;;;5015229;28;20036;-79
2023/09/11 11:54:40;;;;;;;1.98;1.88;;;23.10;51.70;;;;;;5015530;28;20029;-78
2023/09/11 11:57:06;;;;;;;2.40;2.20;;;23.20;51.70;;;;;;5016356;28;20037;-79
2023/09/11 11:59:33;;;;;;;2.00;1.83;;;23.20;51.60;;;;;;5016284;28;20065;-78
2023/09/11 12:01:59;;;;;;;2.20;2.00;;;23.20;51.50;;;;;;5015774;28;20125;-78
2023/09/11 12:04:25;;;;;;;2.15;1.92;;;23.20;51.40;;;;;;5016260;28;20034;-78
2023/09/11 12:06:55;;;;;;;2.53;2.33;;;23.20;51.40;;;;;;5016270;28;20041;-78
2023/09/11 12:09:21;;;;;;;2.85;2.30;;;23.20;51.20;;;;;;5015906;28;20034;-78
2023/09/11 12:11:49;;;;;;;4.82;2.40;;;23.20;51.20;;;;;;5016113;28;20022;-79
2023/09/11 12:14:16;;;;;;;2.38;1.90;;;23.30;51.30;;;;;;5015643;28;20101;-76
2023/09/11 12:16:42;;;;;;;2.58;1.63;;;23.30;51.20;;;;;;5014822;28;20126;-78
2023/09/11 12:19:08;;;;;;;2.00;1.83;;;23.40;51.10;;;;;;5016070;28;20038;-79
2023/09/11 12:21:34;;;;;;;2.13;1.92;;;23.40;50.90;;;;;;5014623;28;20030;-78
2023/09/11 12:24:00;;;;;;;2.00;1.80;;;23.40;50.80;;;;;;5015909;28;20030;-78
2023/09/11 12:26:27;;;;;;;2.10;1.90;;;23.40;50.70;;;;;;5015704;28;20026;-78
2023/09/11 12:28:55;;;;;;;2.38;2.00;;;23.50;50.80;;;;;;5014391;28;20468;-78
2023/09/11 12:31:21;;;;;;;1.80;1.70;;;23.50;50.80;;;;;;5014550;28;20117;-79
2023/09/11 12:33:55;;;;;;;2.03;1.90;;;23.50;50.80;;;;;;5034073;28;20124;-78
2023/09/11 12:36:21;;;;;;;1.83;1.73;;;23.50;50.70;;;;;;5035411;28;20063;-79
2023/09/11 12:38:49;;;;;;;2.20;2.00;;;23.50;50.70;;;;;;5035711;28;20043;-79
2023/09/11 12:41:16;;;;;;;1.90;1.80;;;23.60;50.60;;;;;;5033939;28;20033;-79
2023/09/11 12:43:43;;;;;;;1.90;1.80;;;23.60;50.60;;;;;;5034015;28;20029;-78
2023/09/11 12:46:13;;;;;;;2.58;2.20;;;23.70;50.60;;;;;;5033973;28;20026;-79
2023/09/11 12:48:44;;;;;;;2.10;1.90;;;23.70;50.40;;;;;;5035197;28;20512;-80